createdAt,value
2022-12-14T11:27:55.100Z,47.47
2022-12-14T11:32:57.499Z,49.08
2022-12-14T11:38:00.482Z,42.40
2022-12-14T11:43:04.562Z,42.17
2022-12-14T11:48:15.770Z,42.83
2022-12-14T11:53:20.199Z,40.67
2022-12-14T11:58:37.941Z,39.53
2022-12-14T12:03:48.658Z,45.42
2022-12-14T12:14:25.517Z,44.30
2022-12-14T12:19:38.145Z,48.65
2022-12-14T12:25:24.948Z,49.63
2022-12-14T12:30:29.990Z,52.55
2022-12-14T12:35:48.821Z,49.42
2022-12-14T12:40:59.213Z,45.20
2022-12-14T12:46:13.694Z,46.22
2022-12-14T12:51:22.222Z,43.13
2022-12-14T12:56:36.761Z,45.10
2022-12-14T13:01:43.932Z,42.88
2022-12-14T13:06:57.135Z,39.33
2022-12-14T13:12:01.342Z,43.92
2022-12-14T13:17:06.746Z,42.30
2022-12-14T13:22:15.149Z,48.70
2022-12-14T13:27:49.940Z,43.22
2022-12-14T13:32:58.157Z,42.17
2022-12-14T13:38:09.185Z,44.58
2022-12-14T13:43:14.476Z,50.88
2022-12-14T13:48:25.891Z,42.75
2022-12-14T13:53:40.503Z,49.13
2022-12-14T13:58:46.347Z,50.70
2022-12-14T14:04:18.467Z,51.90
2022-12-14T14:09:24.609Z,52.50
2022-12-14T14:14:35.507Z,50.70
2022-12-14T14:19:41.292Z,52.28
2022-12-14T14:24:58.457Z,51.58
2022-12-14T14:30:01.706Z,55.35
2022-12-14T14:35:27.235Z,51.13
2022-12-14T14:41:06.746Z,55.95
2022-12-14T14:45:58.888Z,59.08
2022-12-14T14:51:08.882Z,57.65
2022-12-14T14:56:29.506Z,61.00
2022-12-14T15:01:31.977Z,63.80
2022-12-14T15:06:40.893Z,61.60
2022-12-14T15:11:45.947Z,62.33
2022-12-14T15:16:51.195Z,59.00
2022-12-14T15:21:58.319Z,65.25
2022-12-14T15:27:10.119Z,63.25
2022-12-14T15:32:17.640Z,65.43
2022-12-14T15:37:30.329Z,71.32
2022-12-14T15:42:32.697Z,76.05
2022-12-14T15:47:35.133Z,71.43
2022-12-14T15:52:38.877Z,64.05
2022-12-14T15:57:41.466Z,70.35
2022-12-14T16:02:44.258Z,67.78
2022-12-14T16:07:54.384Z,61.05
2022-12-14T16:13:03.281Z,59.15
2022-12-14T16:18:05.656Z,63.30
2022-12-14T16:23:13.599Z,70.18
2022-12-14T16:28:22.038Z,62.78
2022-12-14T16:33:25.354Z,70.95
2022-12-14T16:38:28.401Z,72.82
2022-12-14T16:43:41.793Z,67.15
2022-12-14T16:48:50.026Z,77.47
2022-12-14T16:53:57.686Z,77.05
2022-12-14T16:59:03.365Z,68.70
2022-12-14T17:04:06.923Z,72.25
2022-12-14T17:09:19.998Z,72.40
2022-12-14T17:14:22.538Z,75.10
2022-12-14T17:19:37.205Z,70.15
2022-12-14T17:24:40.109Z,69.22
2022-12-14T17:29:42.406Z,72.32
2022-12-14T17:34:45.865Z,71.28
2022-12-14T17:39:48.131Z,72.32
2022-12-14T17:44:55.293Z,72.55
2022-12-14T17:49:57.596Z,70.70
2022-12-14T17:54:59.860Z,68.90
2022-12-14T18:00:20.830Z,62.97
2022-12-14T18:05:23.234Z,65.93
2022-12-14T18:10:25.877Z,61.47
2022-12-14T18:15:34.493Z,59.85
2022-12-14T18:20:38.413Z,68.68
2022-12-14T18:25:43.547Z,64.10
2022-12-14T18:30:55.417Z,57.77
2022-12-14T18:35:57.962Z,60.88
2022-12-14T18:41:01.826Z,60.42
2022-12-14T18:46:04.208Z,61.85
2022-12-14T18:51:07.727Z,66.75
2022-12-14T18:56:11.759Z,60.63
2022-12-14T19:01:21.005Z,62.67
2022-12-14T19:11:47.520Z,59.30
2022-12-14T19:16:49.749Z,65.97
2022-12-14T19:21:51.997Z,63.00
2022-12-14T19:26:54.211Z,56.63
2022-12-14T19:32:00.387Z,61.72
2022-12-14T19:37:07.168Z,64.07
2022-12-14T19:42:09.405Z,64.40
2022-12-14T19:47:12.605Z,62.50
2022-12-14T19:52:14.911Z,63.50
2022-12-14T19:57:17.216Z,66.28
2022-12-14T20:02:19.502Z,65.80
2022-12-14T20:07:21.885Z,62.25
2022-12-14T20:12:27.215Z,62.30
2022-12-14T20:17:29.990Z,70.68
2022-12-14T20:22:32.247Z,66.72
2022-12-14T20:27:38.978Z,65.15
2022-12-14T20:32:43.021Z,62.90
2022-12-14T20:37:54.513Z,67.13
2022-12-14T20:42:56.804Z,69.05
2022-12-14T20:47:59.353Z,69.82
2022-12-14T20:53:01.887Z,64.57
2022-12-14T20:58:04.181Z,72.22
2022-12-14T21:03:06.596Z,68.68
2022-12-14T21:08:09.703Z,72.80
2022-12-14T21:13:11.947Z,68.60
2022-12-14T21:18:14.176Z,68.85
2022-12-14T21:23:16.504Z,61.75
2022-12-14T21:28:18.833Z,62.88
2022-12-14T21:33:21.085Z,70.53
2022-12-14T21:38:23.477Z,73.05
2022-12-14T21:43:25.682Z,65.47
2022-12-14T21:48:27.906Z,73.85
2022-12-14T21:53:35.026Z,60.75
2022-12-14T21:58:37.728Z,65.15
2022-12-14T22:03:39.989Z,66.30
2022-12-14T22:08:42.256Z,60.92
2022-12-14T22:13:44.459Z,57.45
2022-12-14T22:18:47.243Z,67.80
2022-12-14T22:23:50.999Z,68.07
2022-12-14T22:28:53.679Z,63.20
2022-12-14T22:33:55.896Z,64.70
2022-12-14T22:38:59.299Z,72.78
2022-12-14T22:44:01.494Z,77.07
2022-12-14T22:49:04.153Z,71.22
2022-12-14T22:54:06.980Z,69.85
2022-12-14T22:59:28.382Z,78.80
2022-12-14T23:04:30.829Z,67.93
2022-12-14T23:09:51.888Z,62.28
2022-12-14T23:15:12.622Z,62.40
2022-12-14T23:20:33.442Z,61.03
2022-12-14T23:25:54.201Z,74.38
2022-12-14T23:31:16.057Z,62.05
2022-12-14T23:36:36.925Z,64.55
2022-12-14T23:41:57.371Z,63.33
2022-12-14T23:52:38.645Z,50.92
2022-12-14T23:57:59.470Z,62.20
